sensor_id;sensor_type;location;lat;lon;timestamp;temperature;humidity
41080;DHT22;26826;50.718;7.114;2023-04-03T00:05:25;4.80;99.90
41080;DHT22;26826;50.718;7.114;2023-04-03T00:15:25;4.80;99.90
41080;DHT22;26826;50.718;7.114;2023-04-03T00:25:26;4.90;99.90
41080;DHT22;26826;50.718;7.114;2023-04-03T00:35:28;4.70;99.90
41080;DHT22;26826;50.718;7.114;2023-04-03T00:45:38;4.80;99.90
41080;DHT22;26826;50.718;7.114;2023-04-03T00:55:39;4.80;99.90
41080;DHT22;26826;50.718;7.114;2023-04-03T01:05:41;4.80;99.90
41080;DHT22;26826;50.718;7.114;2023-04-03T01:25:52;4.60;99.90
41080;DHT22;26826;50.718;7.114;2023-04-03T01:35:53;4.60;99.90
41080;DHT22;26826;50.718;7.114;2023-04-03T01:45:53;4.50;99.90
41080;DHT22;26826;50.718;7.114;2023-04-03T01:55:55;4.60;99.90
41080;DHT22;26826;50.718;7.114;2023-04-03T02:05:55;4.50;99.90
41080;DHT22;26826;50.718;7.114;2023-04-03T02:15:56;4.50;99.90
41080;DHT22;26826;50.718;7.114;2023-04-03T02:26:08;4.50;99.90
41080;DHT22;26826;50.718;7.114;2023-04-03T02:36:09;4.30;99.90
41080;DHT22;26826;50.718;7.114;2023-04-03T02:46:10;4.30;99.90
41080;DHT22;26826;50.718;7.114;2023-04-03T02:56:10;4.20;99.90
41080;DHT22;26826;50.718;7.114;2023-04-03T03:06:13;4.00;99.90
41080;DHT22;26826;50.718;7.114;2023-04-03T03:16:14;4.10;99.90
41080;DHT22;26826;50.718;7.114;2023-04-03T03:26:14;3.80;99.90
41080;DHT22;26826;50.718;7.114;2023-04-03T03:36:15;3.80;99.90
41080;DHT22;26826;50.718;7.114;2023-04-03T03:46:16;3.80;99.90
41080;DHT22;26826;50.718;7.114;2023-04-03T03:56:17;3.70;99.90
41080;DHT22;26826;50.718;7.114;2023-04-03T04:06:17;3.50;99.90
41080;DHT22;26826;50.718;7.114;2023-04-03T04:16:18;3.40;99.90
41080;DHT22;26826;50.718;7.114;2023-04-03T04:26:18;3.10;99.90
41080;DHT22;26826;50.718;7.114;2023-04-03T04:36:19;2.80;99.90
41080;DHT22;26826;50.718;7.114;2023-04-03T04:46:20;2.70;99.90
41080;DHT22;26826;50.718;7.114;2023-04-03T04:56:20;2.60;99.90
41080;DHT22;26826;50.718;7.114;2023-04-03T05:06:21;2.40;99.90
41080;DHT22;26826;50.718;7.114;2023-04-03T05:16:21;2.20;99.90
41080;DHT22;26826;50.718;7.114;2023-04-03T05:26:22;2.20;99.90
41080;DHT22;26826;50.718;7.114;2023-04-03T05:36:23;2.20;99.90
41080;DHT22;26826;50.718;7.114;2023-04-03T05:46:23;2.30;99.90
41080;DHT22;26826;50.718;7.114;2023-04-03T05:56:24;2.30;99.90
41080;DHT22;26826;50.718;7.114;2023-04-03T06:06:24;2.40;99.90
41080;DHT22;26826;50.718;7.114;2023-04-03T06:16:25;2.60;99.90
41080;DHT22;26826;50.718;7.114;2023-04-03T06:26:25;2.80;99.90
41080;DHT22;26826;50.718;7.114;2023-04-03T06:36:27;3.00;99.90
41080;DHT22;26826;50.718;7.114;2023-04-03T06:46:28;3.50;99.90
41080;DHT22;26826;50.718;7.114;2023-04-03T06:56:28;4.00;99.90
41080;DHT22;26826;50.718;7.114;2023-04-03T07:06:29;4.40;99.90
41080;DHT22;26826;50.718;7.114;2023-04-03T07:26:34;4.90;99.90
41080;DHT22;26826;50.718;7.114;2023-04-03T07:36:35;5.10;99.90
41080;DHT22;26826;50.718;7.114;2023-04-03T07:46:37;5.20;99.90
41080;DHT22;26826;50.718;7.114;2023-04-03T07:56:37;5.90;99.90
41080;DHT22;26826;50.718;7.114;2023-04-03T08:06:38;6.90;99.90
41080;DHT22;26826;50.718;7.114;2023-04-03T08:16:38;7.40;99.90
41080;DHT22;26826;50.718;7.114;2023-04-03T08:26:39;7.60;99.90
41080;DHT22;26826;50.718;7.114;2023-04-03T08:36:39;6.80;99.90
41080;DHT22;26826;50.718;7.114;2023-04-03T08:57:05;8.30;99.90
41080;DHT22;26826;50.718;7.114;2023-04-03T09:07:14;7.50;99.90
41080;DHT22;26826;50.718;7.114;2023-04-03T09:27:37;9.70;99.90
41080;DHT22;26826;50.718;7.114;2023-04-03T09:37:41;10.50;99.90
41080;DHT22;26826;50.718;7.114;2023-04-03T09:47:42;9.60;99.90
41080;DHT22;26826;50.718;7.114;2023-04-03T09:57:45;8.80;99.90
41080;DHT22;26826;50.718;7.114;2023-04-03T10:07:46;9.80;99.90
41080;DHT22;26826;50.718;7.114;2023-04-03T10:38:08;10.50;95.50
41080;DHT22;26826;50.718;7.114;2023-04-03T10:48:38;10.50;94.70
41080;DHT22;26826;50.718;7.114;2023-04-03T10:58:54;10.10;93.30
41080;DHT22;26826;50.718;7.114;2023-04-03T11:09:03;10.20;95.50
41080;DHT22;26826;50.718;7.114;2023-04-03T11:20:20;11.50;94.40
41080;DHT22;26826;50.718;7.114;2023-04-03T11:29:55;13.90;91.80
41080;DHT22;26826;50.718;7.114;2023-04-03T11:40:04;14.20;90.70
41080;DHT22;26826;50.718;7.114;2023-04-03T12:21:13;14.40;85.30
41080;DHT22;26826;50.718;7.114;2023-04-03T12:31:14;14.80;85.10
41080;DHT22;26826;50.718;7.114;2023-04-03T12:41:23;15.60;85.00
41080;DHT22;26826;50.718;7.114;2023-04-03T12:51:39;14.50;80.20
41080;DHT22;26826;50.718;7.114;2023-04-03T13:01:41;14.90;81.10
41080;DHT22;26826;50.718;7.114;2023-04-03T13:11:43;14.30;79.10
41080;DHT22;26826;50.718;7.114;2023-04-03T13:32:46;12.80;82.50
41080;DHT22;26826;50.718;7.114;2023-04-03T13:43:02;14.50;80.40
41080;DHT22;26826;50.718;7.114;2023-04-03T13:53:12;14.60;80.10
41080;DHT22;26826;50.718;7.114;2023-04-03T14:03:25;14.20;82.10
41080;DHT22;26826;50.718;7.114;2023-04-03T14:13:26;13.90;82.20
41080;DHT22;26826;50.718;7.114;2023-04-03T14:23:26;14.60;80.60
41080;DHT22;26826;50.718;7.114;2023-04-03T14:33:27;12.70;82.00
41080;DHT22;26826;50.718;7.114;2023-04-03T14:43:31;12.70;80.10
41080;DHT22;26826;50.718;7.114;2023-04-03T14:53:32;13.10;82.20
41080;DHT22;26826;50.718;7.114;2023-04-03T15:03:33;13.40;81.60
41080;DHT22;26826;50.718;7.114;2023-04-03T15:13:33;13.00;78.50
41080;DHT22;26826;50.718;7.114;2023-04-03T15:23:34;12.60;80.00
41080;DHT22;26826;50.718;7.114;2023-04-03T15:33:35;12.50;79.50
41080;DHT22;26826;50.718;7.114;2023-04-03T15:43:36;12.20;79.60
41080;DHT22;26826;50.718;7.114;2023-04-03T15:53:36;12.00;81.20
41080;DHT22;26826;50.718;7.114;2023-04-03T16:03:39;12.50;80.90
41080;DHT22;26826;50.718;7.114;2023-04-03T16:13:45;11.90;82.60
41080;DHT22;26826;50.718;7.114;2023-04-03T16:23:45;12.20;81.40
41080;DHT22;26826;50.718;7.114;2023-04-03T16:33:46;12.10;81.70
41080;DHT22;26826;50.718;7.114;2023-04-03T16:43:47;11.70;81.10
41080;DHT22;26826;50.718;7.114;2023-04-03T16:53:47;11.30;82.90
41080;DHT22;26826;50.718;7.114;2023-04-03T17:03:48;11.10;82.90
41080;DHT22;26826;50.718;7.114;2023-04-03T17:13:49;10.70;85.70
41080;DHT22;26826;50.718;7.114;2023-04-03T17:23:54;10.20;85.80
41080;DHT22;26826;50.718;7.114;2023-04-03T17:33:57;9.80;83.80
41080;DHT22;26826;50.718;7.114;2023-04-03T17:44:01;9.50;86.20
41080;DHT22;26826;50.718;7.114;2023-04-03T17:54:02;9.20;86.50
41080;DHT22;26826;50.718;7.114;2023-04-03T18:04:04;9.10;87.20
41080;DHT22;26826;50.718;7.114;2023-04-03T18:14:06;8.60;87.60
41080;DHT22;26826;50.718;7.114;2023-04-03T18:24:11;8.40;87.20
41080;DHT22;26826;50.718;7.114;2023-04-03T18:34:12;8.10;87.30
41080;DHT22;26826;50.718;7.114;2023-04-03T18:44:15;7.90;90.10
41080;DHT22;26826;50.718;7.114;2023-04-03T18:54:18;7.70;90.40
41080;DHT22;26826;50.718;7.114;2023-04-03T19:04:20;7.50;90.70
41080;DHT22;26826;50.718;7.114;2023-04-03T19:14:20;7.40;91.50
41080;DHT22;26826;50.718;7.114;2023-04-03T19:24:21;7.20;91.80
41080;DHT22;26826;50.718;7.114;2023-04-03T19:34:21;6.80;91.90
41080;DHT22;26826;50.718;7.114;2023-04-03T19:44:22;6.50;92.70
41080;DHT22;26826;50.718;7.114;2023-04-03T19:54:23;6.50;92.90
41080;DHT22;26826;50.718;7.114;2023-04-03T20:04:23;6.20;93.10
41080;DHT22;26826;50.718;7.114;2023-04-03T20:14:24;6.10;93.40
41080;DHT22;26826;50.718;7.114;2023-04-03T20:24:25;5.90;94.20
41080;DHT22;26826;50.718;7.114;2023-04-03T20:34:27;5.60;94.20
41080;DHT22;26826;50.718;7.114;2023-04-03T20:44:29;5.40;94.60
41080;DHT22;26826;50.718;7.114;2023-04-03T20:54:30;5.30;94.00
41080;DHT22;26826;50.718;7.114;2023-04-03T21:04:46;5.20;94.40
41080;DHT22;26826;50.718;7.114;2023-04-03T21:25:27;5.00;94.40
41080;DHT22;26826;50.718;7.114;2023-04-03T21:35:27;4.90;95.50
41080;DHT22;26826;50.718;7.114;2023-04-03T21:45:28;4.70;96.00
41080;DHT22;26826;50.718;7.114;2023-04-03T21:55:28;4.50;95.70
41080;DHT22;26826;50.718;7.114;2023-04-03T22:05:30;4.40;96.00
41080;DHT22;26826;50.718;7.114;2023-04-03T22:15:35;4.10;97.20
41080;DHT22;26826;50.718;7.114;2023-04-03T22:25:36;4.10;97.70
41080;DHT22;26826;50.718;7.114;2023-04-03T22:35:50;4.00;97.90
41080;DHT22;26826;50.718;7.114;2023-04-03T22:45:51;3.70;98.70
41080;DHT22;26826;50.718;7.114;2023-04-03T23:05:56;3.40;99.90
41080;DHT22;26826;50.718;7.114;2023-04-03T23:15:58;3.20;99.90
41080;DHT22;26826;50.718;7.114;2023-04-03T23:26:00;3.20;99.90
41080;DHT22;26826;50.718;7.114;2023-04-03T23:36:06;3.10;99.90
41080;DHT22;26826;50.718;7.114;2023-04-03T23:46:07;3.10;99.90
41080;DHT22;26826;50.718;7.114;2023-04-03T23:56:07;3.00;99.90
